Time;durP1;ratioP1;P1;durP2;ratioP2;P2;SDS_P1;SDS_P2;PMS_P1;PMS_P2;Temp;Humidity;BMP_temperature;BMP_pressure;BME280_temperature;BME280_humidity;BME280_pressure;Samples;Min_cycle;Max_cycle;Signal;HPM_P1;HPM_P2
2022/07/14 00:00:38;;;;;;;;;;;;;;;19.00;61.75;99914.84;5090154;28;1757;-96
2022/07/14 00:03:05;;;;;;;;;;;;;;;18.97;61.79;99919.00;5097373;28;1914;-95
2022/07/14 00:05:31;;;;;;;;;;;;;;;18.97;61.95;99918.16;5097135;28;2100;-95
2022/07/14 00:07:58;;;;;;;;;;;;;;;18.96;61.92;99911.91;5094140;28;1199;-96
2022/07/14 00:10:25;;;;;;;;;;;;;;;18.96;61.97;99919.28;5097729;28;3565;-95
2022/07/14 00:12:52;;;;;;;;;;;;;;;18.95;61.89;99917.66;5084897;28;1534;-95
2022/07/14 00:15:18;;;;;;;;;;;;;;;18.93;62.02;99917.13;5086411;28;1603;-95
2022/07/14 00:17:45;;;;;;;;;;;;;;;18.93;61.84;99914.41;5093909;28;2030;-95
2022/07/14 00:20:12;;;;;;;;;;;;;;;18.92;62.04;99918.25;5098433;28;1629;-96
2022/07/14 00:22:40;;;;;;;;;;;;;;;18.91;61.95;99911.13;5099165;28;1913;-95
2022/07/14 00:25:06;;;;;;;;;;;;;;;18.89;61.75;99914.16;5092248;28;2228;-96
2022/07/14 00:27:33;;;;;;;;;;;;;;;18.89;61.85;99910.63;5098331;28;2539;-95
2022/07/14 00:29:59;;;;;;;;;;;;;;;18.88;61.79;99911.72;5098641;28;1833;-95
2022/07/14 00:32:27;;;;;;;;;;;;;;;18.86;62.12;99912.03;5105847;28;1289;-95
2022/07/14 00:34:53;;;;;;;;;;;;;;;18.86;62.05;99908.50;5119210;27;1448;-96
2022/07/14 00:37:20;;;;;;;;;;;;;;;18.84;61.91;99916.94;5112945;27;1431;-95
2022/07/14 00:39:56;;;;;;;;;;;;;;;18.83;62.17;99918.88;5105317;28;1438;-95
2022/07/14 00:42:25;;;;;;;;;;;;;;;18.82;62.11;99913.69;5100751;28;1921;-96
2022/07/14 00:44:51;;;;;;;;;;;;;;;18.81;61.74;99912.88;5096444;28;1969;-96
2022/07/14 00:47:18;;;;;;;;;;;;;;;18.80;61.87;99908.53;5096945;28;1475;-96
2022/07/14 00:49:44;;;;;;;;;;;;;;;18.79;61.70;99903.34;5096225;28;1352;-95
2022/07/14 00:52:11;;;;;;;;;;;;;;;18.78;61.85;99905.28;5098652;28;1656;-95
2022/07/14 00:54:37;;;;;;;;;;;;;;;18.76;62.02;99901.22;5097603;28;1515;-95
2022/07/14 00:57:04;;;;;;;;;;;;;;;18.75;61.69;99897.69;5100049;28;1475;-96
2022/07/14 00:59:30;;;;;;;;;;;;;;;18.76;62.05;99895.75;5097568;28;1704;-96
2022/07/14 01:01:57;;;;;;;;;;;;;;;18.74;61.99;99890.59;5099858;28;1809;-95
2022/07/14 01:04:23;;;;;;;;;;;;;;;18.73;61.89;99893.56;5096926;28;2191;-96
2022/07/14 01:06:50;;;;;;;;;;;;;;;18.72;61.78;99894.69;5096396;28;1357;-96
2022/07/14 01:09:16;;;;;;;;;;;;;;;18.70;61.83;99889.50;5099405;28;1403;-96
2022/07/14 01:11:43;;;;;;;;;;;;;;;18.69;61.89;99885.16;5096610;28;1505;-95
2022/07/14 01:14:09;;;;;;;;;;;;;;;18.69;61.76;99892.53;5091622;28;1292;-95
2022/07/14 01:16:36;;;;;;;;;;;;;;;18.68;62.25;99897.19;5099636;28;1867;-95
2022/07/14 01:19:02;;;;;;;;;;;;;;;18.68;62.15;99899.06;5093721;28;1708;-95
2022/07/14 01:21:29;;;;;;;;;;;;;;;18.67;61.94;99897.47;5099664;28;1846;-95
2022/07/14 01:23:56;;;;;;;;;;;;;;;18.66;61.85;99891.19;5115492;27;1980;-95
2022/07/14 01:26:24;;;;;;;;;;;;;;;18.65;61.83;99894.19;5092630;28;1670;-96
2022/07/14 01:28:50;;;;;;;;;;;;;;;18.64;62.19;99901.56;5113422;27;1539;-96
2022/07/14 01:31:17;;;;;;;;;;;;;;;18.64;61.75;99898.03;5089315;28;4199;-95
2022/07/14 01:33:43;;;;;;;;;;;;;;;18.62;62.24;99879.25;5094706;28;1313;-95
2022/07/14 01:36:10;;;;;;;;;;;;;;;18.60;61.64;99885.00;5100216;28;1724;-95
2022/07/14 01:38:37;;;;;;;;;;;;;;;18.60;61.87;99882.25;5095634;28;1256;-96
2022/07/14 01:41:03;;;;;;;;;;;;;;;18.59;61.74;99883.38;5099206;28;1547;-95
2022/07/14 01:43:30;;;;;;;;;;;;;;;18.58;61.97;99878.19;5098769;28;1906;-95
2022/07/14 01:45:56;;;;;;;;;;;;;;;18.58;61.71;99889.09;5108763;28;1496;-96
2022/07/14 01:48:23;;;;;;;;;;;;;;;18.56;61.75;99874.94;5097064;28;2244;-95
2022/07/14 01:50:50;;;;;;;;;;;;;;;18.55;61.87;99873.31;5096651;28;1507;-96
2022/07/14 01:53:16;;;;;;;;;;;;;;;18.54;61.84;99866.25;5097862;28;1662;-95
2022/07/14 01:55:43;;;;;;;;;;;;;;;18.53;61.93;99865.44;5095642;28;1416;-95
2022/07/14 01:58:09;;;;;;;;;;;;;;;18.52;61.77;99865.72;5104354;28;1827;-95
2022/07/14 02:00:36;;;;;;;;;;;;;;;18.51;61.92;99864.09;5096183;28;1696;-96
2022/07/14 02:03:03;;;;;;;;;;;;;;;18.51;61.72;99875.00;5094485;28;1914;-96
2022/07/14 02:05:29;;;;;;;;;;;;;;;18.49;61.92;99869.84;5095374;28;1534;-96
2022/07/14 02:07:56;;;;;;;;;;;;;;;18.46;61.71;99869.59;5094856;28;2049;-96
2022/07/14 02:13:07;;;;;;;;;;;;;;;18.43;61.57;99864.72;5103749;28;1423;-95
2022/07/14 02:15:33;;;;;;;;;;;;;;;18.39;61.54;99864.50;5080463;28;2121;-96
2022/07/14 02:18:00;;;;;;;;;;;;;;;18.38;61.52;99866.41;5095266;28;1878;-95
2022/07/14 02:20:26;;;;;;;;;;;;;;;18.36;61.64;99860.44;5089983;28;1238;-95
2022/07/14 02:22:53;;;;;;;;;;;;;;;18.35;61.73;99855.25;5093987;28;1973;-95
2022/07/14 02:25:19;;;;;;;;;;;;;;;18.35;61.68;99858.81;5094252;28;2048;-95
2022/07/14 02:27:46;;;;;;;;;;;;;;;18.33;61.45;99858.28;5091874;28;1832;-95
2022/07/14 02:30:12;;;;;;;;;;;;;;;18.32;61.54;99862.13;5088977;28;1371;-95
2022/07/14 02:32:39;;;;;;;;;;;;;;;18.32;61.11;99861.28;5100939;28;1532;-95
2022/07/14 02:35:06;;;;;;;;;;;;;;;18.31;60.80;99857.75;5092684;28;2046;-95
2022/07/14 02:37:32;;;;;;;;;;;;;;;18.30;61.26;99858.06;5103536;28;1428;-95
2022/07/14 02:40:00;;;;;;;;;;;;;;;18.28;60.94;99846.63;5095103;28;3488;-95
2022/07/14 02:42:26;;;;;;;;;;;;;;;18.27;61.23;99851.25;5111391;27;1522;-95
2022/07/14 02:44:53;;;;;;;;;;;;;;;18.27;60.86;99850.44;5094241;28;1977;-95
2022/07/14 02:47:19;;;;;;;;;;;;;;;18.26;61.36;99844.16;5093964;28;2908;-96
2022/07/14 02:49:46;;;;;;;;;;;;;;;18.24;61.24;99840.94;5098043;28;1440;-95
2022/07/14 02:52:12;;;;;;;;;;;;;;;18.26;61.06;99840.63;5104225;28;1624;-96
2022/07/14 02:54:39;;;;;;;;;;;;;;;18.25;61.29;99839.00;5099090;28;1328;-95
2022/07/14 02:57:06;;;;;;;;;;;;;;;18.24;61.22;99834.69;5094195;28;1585;-95
2022/07/14 02:59:32;;;;;;;;;;;;;;;18.22;60.83;99829.50;5097395;28;1557;-95
2022/07/14 03:01:59;;;;;;;;;;;;;;;18.23;60.96;99830.31;5105783;28;1541;-96
2022/07/14 03:04:25;;;;;;;;;;;;;;;18.22;60.80;99824.03;5116520;27;1975;-96
2022/07/14 03:06:52;;;;;;;;;;;;;;;18.22;61.05;99826.78;5093948;28;1408;-95
2022/07/14 03:09:18;;;;;;;;;;;;;;;18.21;61.26;99819.72;5093890;28;1213;-95
2022/07/14 03:11:45;;;;;;;;;;;;;;;18.21;61.25;99824.34;5103142;28;1621;-96
2022/07/14 03:14:12;;;;;;;;;;;;;;;18.20;61.32;99826.25;5095189;28;1756;-95
2022/07/14 03:16:38;;;;;;;;;;;;;;;18.19;61.26;99821.91;5097459;28;1983;-95
2022/07/14 03:19:05;;;;;;;;;;;;;;;18.20;61.15;99819.97;5113282;28;1613;-96
2022/07/14 03:21:31;;;;;;;;;;;;;;;18.18;61.33;99823.00;5097857;28;2057;-95
2022/07/14 03:23:58;;;;;;;;;;;;;;;18.17;61.05;99826.81;5089564;28;1973;-95
2022/07/14 03:26:25;;;;;;;;;;;;;;;18.16;61.34;99823.28;5096485;28;2095;-96
2022/07/14 03:28:51;;;;;;;;;;;;;;;18.14;61.33;99820.03;5095572;28;1642;-95
2022/07/14 03:31:18;;;;;;;;;;;;;;;18.14;61.30;99822.75;5094016;28;1790;-95
2022/07/14 03:33:44;;;;;;;;;;;;;;;18.13;61.41;99817.59;5111785;28;1579;-95
2022/07/14 03:36:11;;;;;;;;;;;;;;;18.11;61.40;99820.59;5097339;28;1808;-96
2022/07/14 03:38:37;;;;;;;;;;;;;;;18.10;61.17;99820.91;5114801;28;1287;-96
2022/07/14 03:41:04;;;;;;;;;;;;;;;18.10;61.43;99810.81;5110120;28;1280;-95
2022/07/14 03:43:31;;;;;;;;;;;;;;;18.09;61.45;99811.91;5094049;28;1914;-96
2022/07/14 03:45:57;;;;;;;;;;;;;;;18.08;61.37;99809.47;5093769;28;1218;-95
2022/07/14 03:48:24;;;;;;;;;;;;;;;18.08;61.60;99809.47;5093757;28;1203;-96
2022/07/14 03:50:51;;;;;;;;;;;;;;;18.07;61.46;99816.03;5090524;28;1434;-95
2022/07/14 03:53:17;;;;;;;;;;;;;;;18.05;61.46;99812.78;5108465;28;1458;-95
2022/07/14 03:55:44;;;;;;;;;;;;;;;18.05;61.51;99810.03;5099975;28;1571;-95
2022/07/14 03:58:11;;;;;;;;;;;;;;;18.04;61.50;99811.97;5109803;28;1548;-95
2022/07/14 04:00:37;;;;;;;;;;;;;;;18.02;61.17;99808.69;5087903;28;5077;-95
2022/07/14 04:03:04;;;;;;;;;;;;;;;18.02;61.30;99811.44;5085865;28;2458;-96
2022/07/14 04:05:30;;;;;;;;;;;;;;;18.02;61.36;99824.25;5093557;28;1976;-96
2022/07/14 04:07:57;;;;;;;;;;;;;;;18.00;61.53;99812.81;5105948;28;1337;-95
2022/07/14 04:10:23;;;;;;;;;;;;;;;18.00;61.40;99815.53;5087506;28;1940;-95
2022/07/14 04:12:58;;;;;;;;;;;;;;;17.97;61.22;99814.22;5108938;27;2176;-95
2022/07/14 04:15:50;;;;;;;;;;;;;;;17.96;61.19;99818.03;5102140;28;1501;-95
2022/07/14 04:18:42;;;;;;;;;;;;;;;17.96;61.33;99818.03;5094518;28;1925;-95
2022/07/14 04:21:34;;;;;;;;;;;;;;;17.95;61.21;99819.13;5097884;28;2036;-95
2022/07/14 04:24:26;;;;;;;;;;;;;;;17.95;61.42;99821.84;5105348;28;1906;-95
2022/07/14 04:27:19;;;;;;;;;;;;;;;17.93;61.28;99813.97;5097790;28;2086;-95
2022/07/14 04:30:10;;;;;;;;;;;;;;;17.93;61.23;99811.22;5095059;28;2403;-95
2022/07/14 04:33:02;;;;;;;;;;;;;;;17.92;61.11;99815.06;5084736;28;2002;-95
2022/07/14 04:35:54;;;;;;;;;;;;;;;17.92;61.38;99811.53;5098719;28;1896;-95
2022/07/14 04:38:46;;;;;;;;;;;;;;;17.91;61.17;99816.19;5091157;28;1795;-94
2022/07/14 04:41:38;;;;;;;;;;;;;;;17.89;61.13;99820.28;5081158;28;1577;-96
2022/07/14 04:44:30;;;;;;;;;;;;;;;17.89;61.10;99812.91;5100967;28;1949;-96
2022/07/14 04:47:22;;;;;;;;;;;;;;;17.88;61.03;99810.47;5099861;28;1979;-96
2022/07/14 04:53:23;;;;;;;;;;;;;;;17.88;61.20;99810.47;5097794;28;1474;-96
2022/07/14 04:56:15;;;;;;;;;;;;;;;17.87;61.01;99803.41;5100192;28;628;-96
2022/07/14 04:59:07;;;;;;;;;;;;;;;17.86;61.35;99805.31;5098946;28;2016;-96
2022/07/14 05:02:00;;;;;;;;;;;;;;;17.86;61.04;99802.59;5096965;28;1670;-96
2022/07/14 05:04:52;;;;;;;;;;;;;;;17.85;61.39;99809.16;5097469;28;1906;-96
2022/07/14 05:07:42;;;;;;;;;;;;;;;17.85;61.16;99802.88;5094581;28;2164;-95
2022/07/14 05:10:34;;;;;;;;;;;;;;;17.84;61.05;99804.78;5083554;28;1229;-96
2022/07/14 05:13:26;;;;;;;;;;;;;;;17.84;60.99;99807.50;5098959;28;1989;-96
2022/07/14 05:25:16;;;;;;;;;;;;;;;17.81;60.99;99799.09;5089205;28;1934;-96
2022/07/14 05:28:08;;;;;;;;;;;;;;;17.79;60.92;99802.09;5075625;28;2581;-96
2022/07/14 05:31:00;;;;;;;;;;;;;;;17.78;61.03;99795.03;5077029;28;652;-96
2022/07/14 05:33:52;;;;;;;;;;;;;;;17.78;61.18;99794.22;5074842;28;1854;-96
2022/07/14 05:36:44;;;;;;;;;;;;;;;17.78;61.14;99805.94;5075269;28;1684;-96
2022/07/14 05:39:36;;;;;;;;;;;;;;;17.76;60.79;99804.56;5056853;28;640;-96
2022/07/14 05:42:28;;;;;;;;;;;;;;;17.76;60.80;99805.34;5075428;28;1358;-96
2022/07/14 05:45:20;;;;;;;;;;;;;;;17.75;61.10;99798.31;5076816;28;1894;-96
2022/07/14 05:48:12;;;;;;;;;;;;;;;17.74;61.04;99799.41;5075801;28;1772;-96
2022/07/14 05:51:04;;;;;;;;;;;;;;;17.74;60.83;99799.41;5075304;28;1136;-96
2022/07/14 05:53:56;;;;;;;;;;;;;;;17.74;60.97;99799.41;5063914;28;1254;-96
2022/07/14 05:56:48;;;;;;;;;;;;;;;17.73;60.79;99799.69;5076077;28;1206;-96
2022/07/14 05:59:40;;;;;;;;;;;;;;;17.73;61.03;99805.13;5076193;28;633;-96
2022/07/14 06:02:32;;;;;;;;;;;;;;;17.70;60.88;99804.59;5074737;28;600;-96
2022/07/14 06:05:24;;;;;;;;;;;;;;;17.71;60.83;99802.69;5073606;28;1963;-96
2022/07/14 06:08:16;;;;;;;;;;;;;;;17.70;60.97;99801.06;5076833;28;1092;-96
2022/07/14 06:11:08;;;;;;;;;;;;;;;17.69;60.71;99797.53;5076284;28;1293;-96
2022/07/14 06:14:01;;;;;;;;;;;;;;;17.68;61.03;99790.47;5076302;28;1128;-96
2022/07/14 06:16:53;;;;;;;;;;;;;;;17.69;60.91;99802.16;5074014;28;1773;-96
2022/07/14 06:19:45;;;;;;;;;;;;;;;17.69;60.82;99794.00;5074461;28;1847;-96
2022/07/14 06:22:37;;;;;;;;;;;;;;;17.68;60.86;99795.91;5070376;28;1206;-96
2022/07/14 06:25:29;;;;;;;;;;;;;;;17.68;60.68;99801.34;5068406;28;1905;-96
2022/07/14 06:28:21;;;;;;;;;;;;;;;17.68;60.79;99806.00;5056085;28;676;-96
2022/07/14 06:31:13;;;;;;;;;;;;;;;17.67;60.67;99798.91;5069229;28;2508;-96
2022/07/14 06:34:05;;;;;;;;;;;;;;;17.66;60.60;99798.09;5055989;28;1761;-96
2022/07/14 06:36:57;;;;;;;;;;;;;;;17.66;60.88;99797.28;5075053;28;1705;-96
2022/07/14 06:39:49;;;;;;;;;;;;;;;17.66;60.63;99795.38;5074523;28;1902;-96
2022/07/14 06:42:41;;;;;;;;;;;;;;;17.66;60.73;99797.28;5075905;28;639;-96
2022/07/14 06:45:34;;;;;;;;;;;;;;;17.65;60.56;99801.94;5055628;28;1902;-96
2022/07/14 06:48:25;;;;;;;;;;;;;;;17.65;60.76;99801.13;5074006;28;1492;-96
2022/07/14 06:51:12;;;;;;;;;;;;;;;17.65;60.78;99798.41;5073295;28;1850;-96
2022/07/14 06:53:38;;;;;;;;;;;;;;;17.64;60.58;99797.56;5057773;28;1220;-96
2022/07/14 06:56:06;;;;;;;;;;;;;;;17.64;60.59;99799.47;5058256;28;1563;-96
2022/07/14 06:58:34;;;;;;;;;;;;;;;17.64;60.45;99799.47;5054354;28;1350;-96
2022/07/14 07:01:01;;;;;;;;;;;;;;;17.63;60.70;99801.41;5046186;28;2927;-96
2022/07/14 07:03:28;;;;;;;;;;;;;;;17.62;60.61;99807.94;5057424;28;1188;-96
2022/07/14 07:08:39;;;;;;;;;;;;;;;17.61;60.75;99803.56;5082863;28;1207;-96
2022/07/14 07:11:05;;;;;;;;;;;;;;;17.60;60.50;99807.41;5056987;28;1837;-96
2022/07/14 07:13:36;;;;;;;;;;;;;;;17.61;60.51;99800.03;5057233;28;1511;-96
2022/07/14 07:16:03;;;;;;;;;;;;;;;17.61;60.44;99803.56;5056063;28;1330;-96
2022/07/14 07:18:30;;;;;;;;;;;;;;;17.61;60.58;99802.78;5057767;28;1279;-96
2022/07/14 07:20:57;;;;;;;;;;;;;;;17.60;60.47;99798.44;5056664;28;1915;-96
2022/07/14 07:23:23;;;;;;;;;;;;;;;17.60;60.52;99804.69;5056611;28;1757;-96
2022/07/14 07:25:51;;;;;;;;;;;;;;;17.60;60.73;99807.41;5056948;28;1958;-96
2022/07/14 07:28:17;;;;;;;;;;;;;;;17.62;60.36;99807.13;5057769;28;1196;-96
2022/07/14 07:30:44;;;;;;;;;;;;;;;17.61;60.46;99798.13;5057463;28;1301;-96
2022/07/14 07:33:10;;;;;;;;;;;;;;;17.59;60.38;99808.50;5056223;28;1871;-96
2022/07/14 07:35:38;;;;;;;;;;;;;;;17.61;60.33;99805.50;5055804;28;1983;-96
2022/07/14 07:38:05;;;;;;;;;;;;;;;17.61;60.36;99813.66;5057091;28;1203;-96
2022/07/14 07:40:31;;;;;;;;;;;;;;;17.59;60.44;99808.50;5068787;28;3534;-96
2022/07/14 07:42:58;;;;;;;;;;;;;;;17.61;60.59;99817.19;5045754;28;3782;-96
2022/07/14 07:45:24;;;;;;;;;;;;;;;17.61;60.39;99816.38;5055354;28;2826;-96
2022/07/14 07:47:51;;;;;;;;;;;;;;;17.59;60.34;99807.69;5056651;28;1219;-96
2022/07/14 07:50:18;;;;;;;;;;;;;;;17.59;60.14;99813.97;5064230;28;1710;-96
2022/07/14 07:52:44;;;;;;;;;;;;;;;17.60;60.30;99812.03;5061042;28;1250;-96
2022/07/14 07:55:10;;;;;;;;;;;;;;;17.60;60.31;99818.28;5061031;28;1175;-96
2022/07/14 07:57:37;;;;;;;;;;;;;;;17.59;60.35;99805.78;5091087;28;2622;-96
2022/07/14 08:00:04;;;;;;;;;;;;;;;17.60;60.29;99807.41;5060944;28;1187;-96
2022/07/14 08:02:30;;;;;;;;;;;;;;;17.61;60.31;99810.94;5077012;28;1599;-96
2022/07/14 08:04:57;;;;;;;;;;;;;;;17.60;60.43;99812.84;5060791;28;1906;-96
2022/07/14 08:07:23;;;;;;;;;;;;;;;17.60;60.45;99801.97;5059970;28;1894;-96
2022/07/14 08:09:50;;;;;;;;;;;;;;;17.61;60.38;99805.50;5061091;28;1243;-96
2022/07/14 08:12:16;;;;;;;;;;;;;;;17.59;60.17;99805.78;5060172;28;1871;-96
2022/07/14 08:14:49;;;;;;;;;;;;;;;17.59;60.44;99800.34;5057063;28;1765;-96
2022/07/14 08:17:15;;;;;;;;;;;;;;;17.59;60.19;99803.06;5060976;28;1291;-96
2022/07/14 08:19:42;;;;;;;;;;;;;;;17.61;60.50;99805.50;5060282;28;1292;-96
2022/07/14 08:22:09;;;;;;;;;;;;;;;17.61;60.38;99805.50;5080168;28;1871;-96
2022/07/14 08:24:35;;;;;;;;;;;;;;;17.61;60.32;99813.66;5057291;28;1906;-96
2022/07/14 08:27:02;;;;;;;;;;;;;;;17.62;60.27;99813.38;5060759;28;1350;-96
2022/07/14 08:29:28;;;;;;;;;;;;;;;17.61;60.18;99809.03;5060235;28;1192;-96
2022/07/14 08:31:55;;;;;;;;;;;;;;;17.61;60.27;99808.22;5076042;28;1852;-96
2022/07/14 08:34:22;;;;;;;;;;;;;;;17.62;60.27;99810.66;5060128;28;1276;-96
2022/07/14 08:36:49;;;;;;;;;;;;;;;17.62;59.99;99802.50;5059727;28;1777;-96
2022/07/14 08:39:16;;;;;;;;;;;;;;;17.61;60.27;99803.56;5060615;28;1334;-96
2022/07/14 08:41:42;;;;;;;;;;;;;;;17.63;60.23;99808.75;5059730;28;1437;-96
2022/07/14 08:44:09;;;;;;;;;;;;;;;17.64;60.32;99802.19;5059800;28;1658;-96
2022/07/14 08:46:36;;;;;;;;;;;;;;;17.64;60.26;99813.91;5059958;28;1910;-96
2022/07/14 08:49:03;;;;;;;;;;;;;;;17.64;60.07;99804.91;5060250;28;1273;-96
2022/07/14 08:51:29;;;;;;;;;;;;;;;17.64;60.05;99802.19;5057719;28;1893;-96
2022/07/14 08:53:56;;;;;;;;;;;;;;;17.64;60.07;99807.66;5060209;28;1332;-96
2022/07/14 08:56:25;;;;;;;;;;;;;;;17.63;59.98;99795.13;5060254;28;1287;-96
2022/07/14 08:58:52;;;;;;;;;;;;;;;17.64;60.11;99796.75;5075941;28;1219;-96
2022/07/14 09:01:18;;;;;;;;;;;;;;;17.65;60.09;99788.31;5070332;28;4414;-96
2022/07/14 09:03:45;;;;;;;;;;;;;;;17.65;60.09;99793.75;5056523;28;1932;-96
2022/07/14 09:06:12;;;;;;;;;;;;;;;17.66;60.10;99794.56;5047733;28;1910;-96
2022/07/14 09:08:39;;;;;;;;;;;;;;;17.67;60.17;99790.75;5055090;28;1729;-96
2022/07/14 09:11:05;;;;;;;;;;;;;;;17.66;59.95;99797.28;5039705;28;1202;-96
2022/07/14 09:13:32;;;;;;;;;;;;;;;17.67;60.11;99791.53;5041605;28;1951;-96
2022/07/14 09:15:58;;;;;;;;;;;;;;;17.66;59.86;99789.94;5048012;28;1796;-96
2022/07/14 09:18:25;;;;;;;;;;;;;;;17.66;59.59;99787.22;5058723;28;1917;-96
2022/07/14 09:20:54;;;;;;;;;;;;;;;17.67;59.86;99780.66;5058994;28;1842;-96
2022/07/14 09:23:20;;;;;;;;;;;;;;;17.69;59.89;99783.09;5051427;28;1381;-96
2022/07/14 09:25:48;;;;;;;;;;;;;;;17.69;59.83;99774.94;5040936;28;1898;-96
2022/07/14 09:28:15;;;;;;;;;;;;;;;17.68;60.15;99771.41;5020230;28;1209;-96
2022/07/14 09:30:41;;;;;;;;;;;;;;;17.69;59.91;99780.38;5013595;28;2313;-96
2022/07/14 09:33:08;;;;;;;;;;;;;;;17.69;59.88;99778.47;5019631;28;1855;-96
2022/07/14 09:35:35;;;;;;;;;;;;;;;17.72;59.85;99779.81;5035777;28;1240;-96
2022/07/14 09:38:01;;;;;;;;;;;;;;;17.70;60.12;99790.97;5017889;28;1872;-96
2022/07/14 09:40:27;;;;;;;;;;;;;;;17.70;59.77;99777.34;5016189;28;1620;-96
2022/07/14 09:42:56;;;;;;;;;;;;;;;17.69;59.67;99775.75;5038289;28;1761;-96
2022/07/14 09:45:23;;;;;;;;;;;;;;;17.70;59.74;99782.00;5021474;28;1910;-96
2022/07/14 09:47:49;;;;;;;;;;;;;;;17.72;59.93;99782.53;5032143;28;1346;-96
2022/07/14 09:50:16;;;;;;;;;;;;;;;17.71;59.97;99787.16;5030666;28;2147;-96
2022/07/14 09:52:42;;;;;;;;;;;;;;;17.72;59.99;99779.81;5035566;28;1315;-96
2022/07/14 09:55:09;;;;;;;;;;;;;;;17.72;59.85;99804.31;5020046;28;1209;-96
2022/07/14 09:57:36;;;;;;;;;;;;;;;17.73;59.84;99802.41;5018274;28;1912;-96
2022/07/14 10:00:03;;;;;;;;;;;;;;;17.74;59.75;99804.03;5035865;28;1331;-96
2022/07/14 10:02:29;;;;;;;;;;;;;;;17.74;59.83;99804.03;5019486;28;1245;-96
2022/07/14 10:04:58;;;;;;;;;;;;;;;17.75;59.85;99801.03;5017071;28;1915;-96
2022/07/14 10:07:24;;;;;;;;;;;;;;;17.74;60.04;99793.16;5032528;28;1994;-96
2022/07/14 10:09:51;;;;;;;;;;;;;;;17.75;59.91;99803.75;5004577;28;3259;-96
2022/07/14 10:12:18;;;;;;;;;;;;;;;17.78;59.82;99802.41;5000522;28;3772;-96
2022/07/14 10:14:45;;;;;;;;;;;;;;;17.77;59.85;99796.13;5002729;28;1990;-96
2022/07/14 10:17:11;;;;;;;;;;;;;;;17.77;60.23;99806.19;5029244;28;1774;-96
2022/07/14 10:19:38;;;;;;;;;;;;;;;17.76;59.94;99794.47;5032398;28;1288;-96
2022/07/14 10:22:05;;;;;;;;;;;;;;;17.78;59.90;99796.94;5033063;28;1557;-96
2022/07/14 10:24:33;;;;;;;;;;;;;;;17.79;60.06;99795.84;5049726;28;1247;-96
2022/07/14 10:27:00;;;;;;;;;;;;;;;17.79;59.98;99798.56;5058323;28;1989;-96
2022/07/14 10:29:27;;;;;;;;;;;;;;;17.80;59.97;99798.28;5058906;28;1217;-95
2022/07/14 10:31:56;;;;;;;;;;;;;;;17.80;60.19;99797.50;5059583;28;1843;-96
2022/07/14 10:34:23;;;;;;;;;;;;;;;17.80;60.21;99801.03;5059897;28;1300;-96
2022/07/14 10:36:50;;;;;;;;;;;;;;;17.80;60.09;99798.28;5058441;28;1418;-96
2022/07/14 10:39:17;;;;;;;;;;;;;;;17.82;60.35;99795.28;5055946;28;1372;-96
2022/07/14 10:41:44;;;;;;;;;;;;;;;17.81;60.15;99797.19;5069360;28;1674;-96
2022/07/14 10:44:16;;;;;;;;;;;;;;;17.82;60.33;99798.00;5059280;28;1265;-96
2022/07/14 10:46:43;;;;;;;;;;;;;;;17.83;60.32;99791.47;5059207;28;1878;-96
2022/07/14 10:49:10;;;;;;;;;;;;;;;17.83;60.10;99792.28;5056691;28;1903;-96
2022/07/14 10:51:37;;;;;;;;;;;;;;;17.83;60.13;99786.81;5057250;28;1848;-96
2022/07/14 10:54:03;;;;;;;;;;;;;;;17.85;60.03;99790.09;5057499;28;1241;-96
2022/07/14 10:56:30;;;;;;;;;;;;;;;17.85;60.45;99784.63;5074412;28;1294;-96
2022/07/14 10:58:56;;;;;;;;;;;;;;;17.86;60.26;99786.25;5091692;28;1172;-96
2022/07/14 11:01:23;;;;;;;;;;;;;;;17.86;60.01;99783.53;5057505;28;1262;-96
2022/07/14 11:03:54;;;;;;;;;;;;;;;17.87;60.13;99782.41;5057243;28;1907;-96
2022/07/14 11:06:20;;;;;;;;;;;;;;;17.88;60.31;99785.94;5055646;28;1961;-96
2022/07/14 11:08:47;;;;;;;;;;;;;;;17.87;60.20;99782.41;5057975;28;1326;-96
2022/07/14 11:11:13;;;;;;;;;;;;;;;17.88;60.14;99785.94;5057698;28;1339;-96
2022/07/14 11:13:40;;;;;;;;;;;;;;;17.87;60.39;99785.16;5057423;28;1221;-96
2022/07/14 11:16:06;;;;;;;;;;;;;;;17.89;60.11;99782.97;5056058;28;1925;-96
2022/07/14 11:18:41;;;;;;;;;;;;;;;17.89;59.93;99785.69;5058249;28;1279;-96
2022/07/14 11:21:08;;;;;;;;;;;;;;;17.89;59.91;99777.50;5054119;28;1604;-96
2022/07/14 11:23:35;;;;;;;;;;;;;;;17.89;59.76;99782.16;5075231;28;2204;-96
2022/07/14 11:26:02;;;;;;;;;;;;;;;17.91;60.22;99785.38;5041554;28;1967;-96
2022/07/14 11:28:28;;;;;;;;;;;;;;;17.91;60.00;99783.50;5041827;28;1287;-96
2022/07/14 11:30:55;;;;;;;;;;;;;;;17.91;59.82;99785.38;5041743;28;1172;-96
2022/07/14 11:33:21;;;;;;;;;;;;;;;17.91;60.02;99778.03;5061250;28;1449;-96
2022/07/14 11:38:33;;;;;;;;;;;;;;;17.92;59.99;99773.41;5060270;28;1838;-96
2022/07/14 11:40:59;;;;;;;;;;;;;;;17.94;59.99;99768.47;5061311;28;1204;-96
2022/07/14 11:43:26;;;;;;;;;;;;;;;17.94;60.15;99765.72;5060715;28;1867;-96
2022/07/14 11:45:53;;;;;;;;;;;;;;;17.95;60.26;99764.66;5061191;28;1906;-96
2022/07/14 11:48:20;;;;;;;;;;;;;;;17.95;59.81;99775.56;5060832;28;1238;-96
2022/07/14 11:50:48;;;;;;;;;;;;;;;17.95;59.95;99772.03;5078178;28;1253;-96
2022/07/14 11:53:14;;;;;;;;;;;;;;;17.96;60.01;99768.19;5082565;28;1926;-96
2022/07/14 11:55:41;;;;;;;;;;;;;;;17.97;60.27;99769.78;5057679;28;1256;-96
2022/07/14 11:58:08;;;;;;;;;;;;;;;17.99;60.25;99767.59;5040655;28;1228;-96
2022/07/14 12:00:35;;;;;;;;;;;;;;;17.99;60.42;99759.44;5040941;28;1386;-96
2022/07/14 12:03:04;;;;;;;;;;;;;;;17.98;60.45;99761.34;5049213;28;1723;-96
2022/07/14 12:05:31;;;;;;;;;;;;;;;18.00;60.51;99758.31;5057183;28;1971;-96
2022/07/14 12:08:01;;;;;;;;;;;;;;;18.00;60.20;99752.88;5047695;28;1858;-96
2022/07/14 12:10:27;;;;;;;;;;;;;;;18.01;60.29;99752.59;5060669;28;1245;-96
2022/07/14 12:12:54;;;;;;;;;;;;;;;18.01;60.21;99760.78;5058509;28;1988;-96
2022/07/14 12:15:21;;;;;;;;;;;;;;;18.01;60.30;99758.06;5057809;28;1677;-96
2022/07/14 12:17:47;;;;;;;;;;;;;;;18.02;60.46;99762.38;5075459;28;1919;-96
2022/07/14 12:20:14;;;;;;;;;;;;;;;18.01;60.51;99768.94;5060383;28;1347;-96
2022/07/14 12:22:40;;;;;;;;;;;;;;;18.01;60.14;99768.94;5074762;28;1942;-96
2022/07/14 12:25:07;;;;;;;;;;;;;;;18.02;60.09;99765.13;5076501;28;1297;-96
2022/07/14 12:27:33;;;;;;;;;;;;;;;18.03;60.20;99765.91;5060070;28;1917;-96
2022/07/14 12:30:00;;;;;;;;;;;;;;;18.03;60.30;99764.03;5060976;28;1374;-96
2022/07/14 12:32:27;;;;;;;;;;;;;;;18.03;60.14;99760.47;5051308;28;1789;-96
2022/07/14 12:34:53;;;;;;;;;;;;;;;18.05;60.22;99763.72;5040466;28;1606;-96
2022/07/14 12:37:20;;;;;;;;;;;;;;;18.06;60.08;99759.88;5040318;28;1326;-96
2022/07/14 12:39:46;;;;;;;;;;;;;;;18.07;60.08;99759.63;5067392;28;3101;-96
2022/07/14 12:42:13;;;;;;;;;;;;;;;18.07;60.33;99759.63;5078264;28;1230;-96
2022/07/14 12:44:40;;;;;;;;;;;;;;;18.08;60.00;99757.69;5059777;28;1189;-96
2022/07/14 12:47:06;;;;;;;;;;;;;;;18.07;60.38;99756.91;5058830;28;1983;-95
2022/07/14 12:49:33;;;;;;;;;;;;;;;18.09;60.03;99765.59;5059486;28;1845;-95
2022/07/14 12:52:00;;;;;;;;;;;;;;;18.09;60.11;99764.78;5053293;28;1953;-96
2022/07/14 12:54:26;;;;;;;;;;;;;;;18.09;60.12;99768.31;5056754;28;1938;-96
2022/07/14 12:56:53;;;;;;;;;;;;;;;18.10;59.71;99771.84;5059509;28;1171;-96
2022/07/14 12:59:21;;;;;;;;;;;;;;;18.11;59.89;99762.56;5075412;28;1878;-96
2022/07/14 13:01:47;;;;;;;;;;;;;;;18.11;60.10;99766.09;5059393;28;1297;-95
2022/07/14 13:04:19;;;;;;;;;;;;;;;18.12;60.17;99769.66;5059784;28;1314;-96
2022/07/14 13:06:46;;;;;;;;;;;;;;;18.14;60.27;99770.16;5051514;28;1976;-96
2022/07/14 13:09:12;;;;;;;;;;;;;;;18.14;60.45;99767.44;5051233;28;2777;-96
2022/07/14 13:11:39;;;;;;;;;;;;;;;18.14;60.46;99767.44;5072229;28;1946;-96
2022/07/14 13:14:08;;;;;;;;;;;;;;;18.15;59.91;99769.09;5058767;28;1915;-96
2022/07/14 13:16:35;;;;;;;;;;;;;;;18.14;60.09;99765.53;5067226;28;1568;-96
2022/07/14 13:19:02;;;;;;;;;;;;;;;18.15;60.23;99769.91;5059707;28;1325;-96
2022/07/14 13:21:29;;;;;;;;;;;;;;;18.16;60.18;99766.06;5061640;28;1884;-96
2022/07/14 13:23:55;;;;;;;;;;;;;;;18.15;60.20;99772.63;5059651;28;1971;-96
2022/07/14 13:26:22;;;;;;;;;;;;;;;18.16;60.41;99776.97;5059045;28;1898;-96
2022/07/14 13:28:48;;;;;;;;;;;;;;;18.17;60.57;99766.88;5059493;28;1305;-95
2022/07/14 13:31:16;;;;;;;;;;;;;;;18.18;60.13;99771.22;5053687;28;1960;-96
2022/07/14 13:33:43;;;;;;;;;;;;;;;18.20;60.35;99765.47;5059035;28;1223;-96
2022/07/14 13:36:09;;;;;;;;;;;;;;;18.18;60.60;99763.06;5046380;28;2066;-96